Time;durP1;ratioP1;P1;durP2;ratioP2;P2;SDS_P1;SDS_P2;PMS_P1;PMS_P2;Temp;Humidity;BMP_temperature;BMP_pressure;BME280_temperature;BME280_humidity;BME280_pressure;Samples;Min_cycle;Max_cycle;Signal;HPM_P1;HPM_P2
2023/07/30 00:01:19;;;;;;;3.20;1.30;;;19.60;90.50;;;;;;5090051;28;20029;-80
2023/07/30 00:03:45;;;;;;;2.28;1.27;;;19.50;90.50;;;;;;5071699;28;20028;-81
2023/07/30 00:06:10;;;;;;;2.47;1.45;;;19.50;90.50;;;;;;5088857;28;20378;-83
2023/07/30 00:08:36;;;;;;;3.40;1.60;;;19.50;90.60;;;;;;5070075;28;20036;-80
2023/07/30 00:11:01;;;;;;;1.98;1.30;;;19.50;90.60;;;;;;5070086;28;20025;-80
2023/07/30 00:13:27;;;;;;;2.45;1.40;;;19.50;90.60;;;;;;5069159;28;20051;-82
2023/07/30 00:15:52;;;;;;;2.38;1.42;;;19.50;90.90;;;;;;5070548;28;20027;-82
2023/07/30 00:18:19;;;;;;;2.88;1.60;;;19.50;90.70;;;;;;5089653;28;20084;-81
2023/07/30 00:20:44;;;;;;;3.33;1.83;;;19.50;90.70;;;;;;5072102;28;20376;-82
2023/07/30 00:23:10;;;;;;;2.38;1.60;;;19.50;90.70;;;;;;5089336;28;20039;-82
2023/07/30 00:25:35;;;;;;;4.20;1.85;;;19.50;90.70;;;;;;5071577;28;20032;-80
2023/07/30 00:28:01;;;;;;;2.53;1.50;;;19.50;90.70;;;;;;5070645;28;20040;-80
2023/07/30 00:30:27;;;;;;;2.67;1.50;;;19.50;90.70;;;;;;5070897;28;20024;-81
2023/07/30 00:32:52;;;;;;;3.42;1.80;;;19.50;90.70;;;;;;5068880;28;20027;-82
2023/07/30 00:35:18;;;;;;;3.45;1.90;;;19.50;90.70;;;;;;5068776;28;20013;-81
2023/07/30 00:37:43;;;;;;;3.35;1.90;;;19.50;90.70;;;;;;5068795;28;20556;-81
2023/07/30 00:40:09;;;;;;;4.30;1.92;;;19.50;90.70;;;;;;5086684;28;20025;-81
2023/07/30 00:42:35;;;;;;;2.85;1.77;;;19.50;90.70;;;;;;5067280;28;20365;-80
2023/07/30 00:45:00;;;;;;;4.22;1.98;;;19.50;90.70;;;;;;5085411;28;20031;-81
2023/07/30 00:47:27;;;;;;;3.08;1.80;;;19.50;90.70;;;;;;5068043;28;20459;-80
2023/07/30 00:49:53;;;;;;;2.90;1.70;;;19.50;90.80;;;;;;5085730;28;20055;-80
2023/07/30 00:52:21;;;;;;;3.85;1.88;;;19.50;90.70;;;;;;5084818;28;20021;-80
2023/07/30 00:54:51;;;;;;;2.67;1.60;;;19.50;90.70;;;;;;5084459;28;20420;-81
2023/07/30 00:57:18;;;;;;;2.65;1.65;;;19.50;90.60;;;;;;5084107;28;20020;-80
2023/07/30 00:59:44;;;;;;;2.20;1.50;;;19.60;90.60;;;;;;5065684;28;20020;-82
2023/07/30 01:02:10;;;;;;;3.35;1.70;;;19.60;90.60;;;;;;5083153;28;20063;-79
2023/07/30 01:04:37;;;;;;;2.80;1.60;;;19.60;90.80;;;;;;5082997;28;20871;-81
2023/07/30 01:07:03;;;;;;;2.83;1.63;;;19.60;90.50;;;;;;5064505;28;20021;-79
2023/07/30 01:09:29;;;;;;;2.45;1.55;;;19.60;90.40;;;;;;5082294;28;20044;-81
2023/07/30 01:11:55;;;;;;;2.47;1.52;;;19.60;90.40;;;;;;5062870;28;20443;-81
2023/07/30 01:14:22;;;;;;;2.35;1.55;;;19.60;90.40;;;;;;5081331;28;20027;-79
2023/07/30 01:16:48;;;;;;;2.90;1.75;;;19.60;90.30;;;;;;5081103;28;20495;-79
2023/07/30 01:19:14;;;;;;;4.13;1.90;;;19.60;90.30;;;;;;5081701;28;20538;-79
2023/07/30 01:21:40;;;;;;;3.20;1.80;;;19.60;90.30;;;;;;5062448;28;20024;-80
2023/07/30 01:24:05;;;;;;;3.20;1.95;;;19.60;90.40;;;;;;5061840;28;20028;-81
2023/07/30 01:26:45;;;;;;;3.00;1.90;;;19.50;90.40;;;;;;5080468;28;20040;-79
2023/07/30 01:29:21;;;;;;;2.97;1.85;;;19.60;90.40;;;;;;5061024;28;20030;-80
2023/07/30 01:31:56;;;;;;;3.75;1.92;;;19.50;90.50;;;;;;5063928;28;20321;-79
2023/07/30 01:34:24;;;;;;;3.28;1.88;;;19.50;90.50;;;;;;5064788;28;20024;-81
2023/07/30 01:36:52;;;;;;;3.55;1.90;;;19.50;90.60;;;;;;5065258;28;20392;-79
2023/07/30 01:39:19;;;;;;;3.13;1.85;;;19.50;90.60;;;;;;5083282;28;20032;-79
2023/07/30 01:41:44;;;;;;;3.63;2.00;;;19.50;90.60;;;;;;5064090;28;20385;-80
2023/07/30 01:44:10;;;;;;;4.10;1.95;;;19.50;90.60;;;;;;5062858;28;20026;-81
2023/07/30 01:46:35;;;;;;;4.22;2.05;;;19.50;90.60;;;;;;5063159;28;20031;-79
2023/07/30 01:49:01;;;;;;;4.53;2.10;;;19.50;90.60;;;;;;5081087;28;20115;-81
2023/07/30 01:51:26;;;;;;;5.25;2.00;;;19.50;90.60;;;;;;5063493;28;20115;-81
2023/07/30 01:53:52;;;;;;;3.20;1.75;;;19.50;90.70;;;;;;5062154;28;20517;-79
2023/07/30 01:56:17;;;;;;;3.60;1.88;;;19.50;90.60;;;;;;5062646;28;20031;-80
2023/07/30 01:58:43;;;;;;;4.22;1.80;;;19.50;90.60;;;;;;5080800;28;20032;-81
2023/07/30 02:01:09;;;;;;;3.53;1.88;;;19.40;90.70;;;;;;5062257;28;20024;-79
2023/07/30 02:03:34;;;;;;;3.40;1.95;;;19.40;90.60;;;;;;5079793;28;20036;-79
2023/07/30 02:06:00;;;;;;;4.10;2.40;;;19.50;90.70;;;;;;5061609;28;20118;-79
2023/07/30 02:08:25;;;;;;;4.13;2.15;;;19.50;90.70;;;;;;5061301;28;20024;-79
2023/07/30 02:11:00;;;;;;;2.95;1.90;;;19.40;90.60;;;;;;5079799;28;20028;-79
2023/07/30 02:13:26;;;;;;;3.38;1.90;;;19.40;90.60;;;;;;5060463;28;20040;-80
2023/07/30 02:15:52;;;;;;;4.47;2.40;;;19.50;90.60;;;;;;5079629;28;20017;-79
2023/07/30 02:18:17;;;;;;;3.88;1.95;;;19.40;90.60;;;;;;5079985;28;20032;-79
2023/07/30 02:20:43;;;;;;;3.45;2.25;;;19.50;90.60;;;;;;5061379;28;20028;-80
2023/07/30 02:23:08;;;;;;;2.90;1.80;;;19.50;90.60;;;;;;5079103;28;20468;-79
2023/07/30 02:25:34;;;;;;;3.20;2.05;;;19.50;90.60;;;;;;5078458;28;20405;-80
2023/07/30 02:28:01;;;;;;;4.85;2.20;;;19.50;90.60;;;;;;5059781;28;20377;-80
2023/07/30 02:30:27;;;;;;;4.25;2.05;;;19.50;90.60;;;;;;5065729;28;20027;-80
2023/07/30 02:32:53;;;;;;;4.50;2.30;;;19.50;90.50;;;;;;5098103;28;20035;-80
2023/07/30 02:35:19;;;;;;;3.33;1.98;;;19.50;90.50;;;;;;5097550;28;20024;-81
2023/07/30 02:37:44;;;;;;;4.55;2.38;;;19.50;90.50;;;;;;5079283;28;20030;-79
2023/07/30 02:40:10;;;;;;;4.10;2.30;;;19.60;90.50;;;;;;5079716;28;20028;-79
2023/07/30 02:42:36;;;;;;;3.63;2.10;;;19.50;90.40;;;;;;5079259;28;20488;-79
2023/07/30 02:45:02;;;;;;;3.63;1.98;;;19.50;90.40;;;;;;5079154;28;20028;-80
2023/07/30 02:47:27;;;;;;;3.60;2.00;;;19.60;90.40;;;;;;5097760;28;20028;-79
2023/07/30 02:49:53;;;;;;;3.65;1.92;;;19.60;90.30;;;;;;5078589;28;20066;-79
2023/07/30 02:52:18;;;;;;;4.03;2.20;;;19.60;90.30;;;;;;5079034;28;20020;-80
2023/07/30 02:54:44;;;;;;;4.53;2.25;;;19.60;90.30;;;;;;5098310;28;20017;-81
2023/07/30 02:57:11;;;;;;;4.93;2.20;;;19.60;90.30;;;;;;5078531;28;20084;-79
2023/07/30 02:59:37;;;;;;;3.58;2.20;;;19.60;90.30;;;;;;5096689;28;20077;-80
2023/07/30 03:02:04;;;;;;;5.22;2.50;;;19.50;90.30;;;;;;5078005;28;20043;-80
2023/07/30 03:04:30;;;;;;;3.88;2.05;;;19.50;90.40;;;;;;5097060;28;20054;-79
2023/07/30 03:06:56;;;;;;;3.88;2.20;;;19.50;90.40;;;;;;5096732;28;20024;-79
2023/07/30 03:09:22;;;;;;;5.38;2.42;;;19.50;90.50;;;;;;5077578;28;20032;-80
2023/07/30 03:11:48;;;;;;;3.53;1.98;;;19.50;90.50;;;;;;5077830;28;20046;-79
2023/07/30 03:14:14;;;;;;;4.78;2.13;;;19.50;90.50;;;;;;5096136;28;20034;-79
2023/07/30 03:16:39;;;;;;;3.90;2.20;;;19.50;90.50;;;;;;5096999;28;20024;-80
2023/07/30 03:19:05;;;;;;;4.57;2.20;;;19.50;90.50;;;;;;5078047;28;20028;-79
2023/07/30 03:21:30;;;;;;;3.60;2.00;;;19.40;90.50;;;;;;5077752;28;20028;-80
2023/07/30 03:23:56;;;;;;;4.03;2.30;;;19.40;90.50;;;;;;5095935;28;20122;-81
2023/07/30 03:26:21;;;;;;;4.13;2.30;;;19.40;90.50;;;;;;5105813;28;20024;-82
2023/07/30 03:28:47;;;;;;;3.92;2.00;;;19.40;90.50;;;;;;5111682;28;20042;-82
2023/07/30 03:31:12;;;;;;;3.42;1.92;;;19.40;90.70;;;;;;5093804;28;20385;-82
2023/07/30 03:33:39;;;;;;;4.50;2.38;;;19.40;90.50;;;;;;5110834;28;20034;-82
2023/07/30 03:36:05;;;;;;;3.83;2.30;;;19.40;90.50;;;;;;5092455;28;20050;-80
2023/07/30 03:38:30;;;;;;;4.07;2.17;;;19.40;90.70;;;;;;5110313;28;20484;-81
2023/07/30 03:40:56;;;;;;;3.80;2.15;;;19.40;90.50;;;;;;5110003;28;20091;-82
2023/07/30 03:43:21;;;;;;;4.50;2.40;;;19.40;90.50;;;;;;5090866;28;20357;-82
2023/07/30 03:45:48;;;;;;;4.40;2.33;;;19.40;90.50;;;;;;5108948;28;20062;-80
2023/07/30 03:48:14;;;;;;;3.78;2.15;;;19.40;90.50;;;;;;5109078;28;20020;-83
2023/07/30 03:50:39;;;;;;;5.18;2.65;;;19.40;90.50;;;;;;5093574;28;20008;-82
2023/07/30 03:53:05;;;;;;;4.15;2.55;;;19.40;90.50;;;;;;5109997;28;20012;-81
2023/07/30 03:55:31;;;;;;;4.20;2.70;;;19.40;90.50;;;;;;5110560;28;20448;-81
2023/07/30 03:57:58;;;;;;;4.68;2.88;;;19.40;90.50;;;;;;5092756;28;20480;-82
2023/07/30 04:00:23;;;;;;;5.70;2.90;;;19.40;90.50;;;;;;5092583;28;20012;-81
2023/07/30 04:02:49;;;;;;;5.65;2.63;;;19.40;90.50;;;;;;5091812;28;20415;-82
2023/07/30 04:05:15;;;;;;;4.30;2.60;;;19.40;90.40;;;;;;5109348;28;20035;-82
2023/07/30 04:07:40;;;;;;;5.30;2.65;;;19.40;90.40;;;;;;5110107;28;20016;-81
2023/07/30 04:10:06;;;;;;;4.97;2.63;;;19.50;90.40;;;;;;5108550;28;20050;-82
2023/07/30 04:12:31;;;;;;;4.97;2.65;;;19.50;90.40;;;;;;5089734;28;20027;-80
2023/07/30 04:14:57;;;;;;;6.45;2.60;;;19.60;90.40;;;;;;5107399;28;20085;-82
2023/07/30 04:17:22;;;;;;;5.22;2.50;;;19.50;90.30;;;;;;5089064;28;20008;-81
2023/07/30 04:19:48;;;;;;;4.93;2.78;;;19.50;90.30;;;;;;5088248;28;20034;-80
2023/07/30 04:22:14;;;;;;;4.47;2.40;;;19.50;90.30;;;;;;5107133;28;20496;-82
2023/07/30 04:24:40;;;;;;;4.97;2.70;;;19.50;90.20;;;;;;5087261;28;20012;-82
2023/07/30 04:27:05;;;;;;;4.53;2.45;;;19.50;90.20;;;;;;5086942;28;20020;-80
2023/07/30 04:29:31;;;;;;;4.97;2.50;;;19.50;90.20;;;;;;5085432;28;20123;-79
2023/07/30 04:31:56;;;;;;;5.75;2.90;;;19.50;90.20;;;;;;5104180;28;20024;-83
2023/07/30 04:34:22;;;;;;;5.45;2.60;;;19.50;90.20;;;;;;5085308;28;20059;-80
2023/07/30 04:36:47;;;;;;;4.85;2.80;;;19.50;90.20;;;;;;5104610;28;20025;-80
2023/07/30 04:39:13;;;;;;;5.22;2.83;;;19.50;90.20;;;;;;5085666;28;20056;-81
2023/07/30 04:41:38;;;;;;;5.63;2.97;;;19.50;90.20;;;;;;5084400;28;20092;-80
2023/07/30 04:44:04;;;;;;;4.70;2.50;;;19.50;90.30;;;;;;5084200;28;20045;-79
2023/07/30 04:46:30;;;;;;;5.95;2.60;;;19.50;90.30;;;;;;5084749;28;20489;-80
2023/07/30 04:48:56;;;;;;;4.88;2.60;;;19.40;90.20;;;;;;5066788;28;20557;-82
2023/07/30 04:51:21;;;;;;;4.43;2.50;;;19.40;90.20;;;;;;5069126;28;20021;-81
2023/07/30 04:53:47;;;;;;;5.95;2.60;;;19.50;90.20;;;;;;5062963;28;20035;-80
2023/07/30 04:56:12;;;;;;;4.55;2.38;;;19.40;90.20;;;;;;5063249;28;20016;-81
2023/07/30 04:58:38;;;;;;;5.93;2.70;;;19.40;90.20;;;;;;5076721;28;20380;-82
2023/07/30 05:01:03;;;;;;;4.90;2.40;;;19.40;90.20;;;;;;5057408;28;20032;-81
2023/07/30 05:03:29;;;;;;;3.90;2.28;;;19.60;90.20;;;;;;5059088;28;20025;-80
2023/07/30 05:05:54;;;;;;;5.68;2.72;;;19.40;90.10;;;;;;5062279;28;20489;-82
2023/07/30 05:08:20;;;;;;;5.93;2.92;;;19.40;90.10;;;;;;5063392;28;20064;-81
2023/07/30 05:10:45;;;;;;;5.43;2.40;;;19.50;90.10;;;;;;5063935;28;20048;-81
2023/07/30 05:13:12;;;;;;;4.40;2.40;;;19.40;90.00;;;;;;5080886;28;20063;-79
2023/07/30 05:15:38;;;;;;;4.57;2.20;;;19.40;90.00;;;;;;5084809;28;20042;-81
2023/07/30 05:18:04;;;;;;;4.95;2.45;;;19.40;90.00;;;;;;5067999;28;20442;-80
2023/07/30 05:20:29;;;;;;;5.32;2.30;;;19.40;89.90;;;;;;5064040;28;20115;-82
2023/07/30 05:22:55;;;;;;;5.07;2.35;;;19.40;89.80;;;;;;5063833;28;20020;-84
2023/07/30 05:25:20;;;;;;;4.93;2.30;;;19.50;89.80;;;;;;5064916;28;20016;-82
2023/07/30 05:27:46;;;;;;;5.05;2.42;;;19.40;89.70;;;;;;5083045;28;20020;-80
2023/07/30 05:30:12;;;;;;;4.68;2.47;;;19.50;89.70;;;;;;5084278;28;20032;-81
2023/07/30 05:32:37;;;;;;;4.30;2.10;;;19.70;89.70;;;;;;5080959;28;20123;-80
2023/07/30 05:35:03;;;;;;;5.05;2.50;;;19.50;90.00;;;;;;5081561;28;20115;-81
2023/07/30 05:37:28;;;;;;;5.38;2.40;;;19.50;89.60;;;;;;5071055;28;20063;-80
2023/07/30 05:39:54;;;;;;;4.65;2.45;;;18.50;89.00;;;;;;5061686;28;20118;-80
2023/07/30 05:42:20;;;;;;;4.90;2.13;;;19.50;89.40;;;;;;5061528;28;20081;-82
2023/07/30 05:44:45;;;;;;;4.65;2.30;;;19.40;89.20;;;;;;5062090;28;20032;-82
2023/07/30 05:47:11;;;;;;;4.70;2.58;;;19.70;89.30;;;;;;5061058;28;20404;-80
2023/07/30 05:49:36;;;;;;;5.78;2.60;;;20.00;89.50;;;;;;5060027;28;20043;-80
2023/07/30 05:52:02;;;;;;;5.57;2.10;;;19.60;89.00;;;;;;5068791;28;20045;-80
2023/07/30 05:54:28;;;;;;;4.95;2.50;;;19.60;88.80;;;;;;5088298;28;20033;-80
2023/07/30 05:56:53;;;;;;;3.92;2.08;;;19.80;88.90;;;;;;5076661;28;20039;-82
2023/07/30 05:59:20;;;;;;;4.80;2.40;;;19.70;88.60;;;;;;5066833;28;20103;-80
2023/07/30 06:01:45;;;;;;;5.22;2.28;;;19.70;88.60;;;;;;5079444;28;20802;-81
2023/07/30 06:04:11;;;;;;;5.65;2.50;;;19.60;88.40;;;;;;5081540;28;20021;-83
2023/07/30 06:06:36;;;;;;;4.45;2.28;;;19.40;88.20;;;;;;5075605;28;20070;-79
2023/07/30 06:09:02;;;;;;;4.55;2.20;;;20.00;88.50;;;;;;5072955;28;20036;-80
2023/07/30 06:11:28;;;;;;;4.15;2.17;;;19.60;88.30;;;;;;5057038;28;20550;-81
2023/07/30 06:13:54;;;;;;;5.03;2.30;;;20.90;88.80;;;;;;5056625;28;20024;-81
2023/07/30 06:16:22;;;;;;;4.85;2.53;;;20.30;88.60;;;;;;5073223;28;20503;-80
2023/07/30 06:18:48;;;;;;;5.00;2.13;;;19.90;88.40;;;;;;5074667;28;20039;-79
2023/07/30 06:21:13;;;;;;;5.00;2.30;;;20.00;88.50;;;;;;5056618;28;20028;-80
2023/07/30 06:23:39;;;;;;;5.30;2.28;;;19.70;88.40;;;;;;5055644;28;20024;-80
2023/07/30 06:26:05;;;;;;;5.47;2.05;;;20.50;88.80;;;;;;5074010;28;20028;-79
2023/07/30 06:28:30;;;;;;;5.25;2.30;;;20.20;88.80;;;;;;5099234;28;20036;-81
2023/07/30 06:32:02;;;;;;;6.32;2.47;;;20.40;89.00;;;;;;5081219;28;20024;-82
2023/07/30 06:41:46;;;;;;;4.85;2.38;;;19.50;88.50;;;;;;4941985;28;20037;-84
2023/07/30 06:44:35;;;;;;;3.47;1.98;;;19.60;88.50;;;;;;5062471;28;20082;-83
2023/07/30 06:47:01;;;;;;;4.05;2.00;;;19.60;88.50;;;;;;5071507;28;20028;-81
2023/07/30 06:49:36;;;;;;;4.80;2.30;;;20.10;88.80;;;;;;5081564;28;20158;-84
2023/07/30 06:52:10;;;;;;;4.22;2.20;;;19.30;88.30;;;;;;5081585;28;20046;-81
2023/07/30 06:54:39;;;;;;;5.40;2.60;;;19.50;88.50;;;;;;5077406;28;20025;-83
2023/07/30 06:57:04;;;;;;;6.57;2.63;;;20.50;88.90;;;;;;5074309;28;20053;-87
2023/07/30 06:59:39;;;;;;;4.95;2.45;;;19.60;88.20;;;;;;5085824;28;20008;-82
2023/07/30 07:02:10;;;;;;;6.03;2.67;;;19.60;88.20;;;;;;5090903;28;20042;-85
2023/07/30 07:04:46;;;;;;;6.95;2.80;;;19.40;88.00;;;;;;5080942;28;20036;-83
2023/07/30 07:07:40;;;;;;;7.22;2.92;;;19.60;88.10;;;;;;5089635;28;20114;-82
2023/07/30 07:10:15;;;;;;;5.38;2.22;;;19.50;88.00;;;;;;5079700;28;20036;-85
2023/07/30 07:12:47;;;;;;;5.93;2.83;;;19.60;88.10;;;;;;5088848;28;20551;-82
2023/07/30 07:15:13;;;;;;;5.97;2.70;;;19.50;88.00;;;;;;5076151;28;20024;-82
2023/07/30 07:17:39;;;;;;;6.30;2.70;;;19.60;88.10;;;;;;5081984;28;20031;-83
2023/07/30 07:20:07;;;;;;;5.70;2.58;;;20.00;88.30;;;;;;5082804;28;20036;-84
2023/07/30 07:22:33;;;;;;;6.55;2.90;;;19.60;88.00;;;;;;5108778;28;20046;-86
2023/07/30 07:24:59;;;;;;;5.85;3.05;;;19.70;88.00;;;;;;5105362;28;20028;-84
2023/07/30 07:27:25;;;;;;;6.00;2.70;;;19.70;87.90;;;;;;5082924;28;20031;-84
2023/07/30 07:29:51;;;;;;;6.18;2.78;;;19.70;87.90;;;;;;5105134;28;20496;-84
2023/07/30 07:32:17;;;;;;;5.45;2.88;;;19.70;87.80;;;;;;5107084;28;20057;-83
2023/07/30 07:34:48;;;;;;;5.78;2.80;;;19.70;87.80;;;;;;5087600;28;20457;-86
2023/07/30 07:37:15;;;;;;;8.45;2.90;;;19.70;87.80;;;;;;5100489;28;20817;-86
2023/07/30 07:39:41;;;;;;;5.93;2.72;;;19.70;87.80;;;;;;5093257;28;20021;-83
2023/07/30 07:42:07;;;;;;;6.85;3.00;;;19.70;87.80;;;;;;5066139;28;20175;-86
2023/07/30 07:44:32;;;;;;;5.50;2.47;;;19.70;87.90;;;;;;5063169;28;20068;-82
2023/07/30 07:46:58;;;;;;;6.28;3.03;;;19.70;88.10;;;;;;5081879;28;20036;-82
2023/07/30 07:49:23;;;;;;;6.80;3.08;;;19.60;88.10;;;;;;5080208;28;20059;-85
2023/07/30 07:51:49;;;;;;;8.05;3.33;;;19.60;88.10;;;;;;5085979;28;20028;-80
2023/07/30 07:54:14;;;;;;;5.85;2.92;;;19.60;88.20;;;;;;5086158;28;20035;-85
2023/07/30 07:56:40;;;;;;;6.00;2.67;;;19.50;88.40;;;;;;5085907;28;20020;-85
2023/07/30 07:59:05;;;;;;;5.50;2.67;;;19.50;88.40;;;;;;5085974;28;20024;-84
2023/07/30 08:01:31;;;;;;;6.50;3.08;;;19.60;88.60;;;;;;5085581;28;20027;-81
2023/07/30 08:03:57;;;;;;;6.43;3.03;;;19.50;88.50;;;;;;5085672;28;20065;-86
2023/07/30 08:06:22;;;;;;;6.88;3.03;;;19.50;88.60;;;;;;5080996;28;20054;-82
2023/07/30 08:08:48;;;;;;;6.95;2.90;;;19.50;88.60;;;;;;5085870;28;20062;-82
2023/07/30 08:11:13;;;;;;;6.82;3.50;;;19.60;88.70;;;;;;5084863;28;20377;-82
2023/07/30 08:13:39;;;;;;;6.95;3.20;;;19.50;88.60;;;;;;5085258;28;20388;-84
2023/07/30 08:18:32;;;;;;;5.60;3.15;;;19.50;88.70;;;;;;5056912;28;20076;-84
2023/07/30 08:21:17;;;;;;;6.05;3.30;;;20.70;89.30;;;;;;5039757;28;20477;-81
2023/07/30 08:26:38;;;;;;;6.35;3.30;;;20.30;89.20;;;;;;5014748;28;20038;-81
2023/07/30 08:29:03;;;;;;;7.43;3.50;;;20.20;89.10;;;;;;5037852;28;20029;-82
2023/07/30 08:31:50;;;;;;;6.10;3.10;;;20.00;89.00;;;;;;5019272;28;20033;-81
2023/07/30 08:34:15;;;;;;;6.60;3.83;;;20.20;89.10;;;;;;5037340;28;20112;-81
2023/07/30 08:36:53;;;;;;;7.05;3.80;;;19.50;88.70;;;;;;5025251;28;20057;-82
2023/07/30 08:39:19;;;;;;;6.03;3.30;;;19.90;88.90;;;;;;5021111;28;20032;-81
2023/07/30 08:41:45;;;;;;;6.90;3.65;;;19.30;88.60;;;;;;5034312;28;20029;-82
2023/07/30 08:44:11;;;;;;;5.85;3.78;;;20.00;89.10;;;;;;5031415;28;20124;-85
2023/07/30 08:46:37;;;;;;;7.82;3.83;;;19.50;88.80;;;;;;5023979;28;20690;-81
2023/07/30 08:49:03;;;;;;;6.72;3.83;;;19.40;88.70;;;;;;5034862;28;20033;-81
2023/07/30 08:51:33;;;;;;;6.40;3.70;;;19.50;88.80;;;;;;5016304;28;20052;-81
2023/07/30 08:54:03;;;;;;;6.13;3.80;;;19.70;88.80;;;;;;5016634;28;20060;-80
2023/07/30 08:56:30;;;;;;;7.00;4.10;;;19.40;88.50;;;;;;5019552;28;20055;-81
2023/07/30 08:59:12;;;;;;;6.97;3.75;;;20.00;88.70;;;;;;4997202;28;20414;-80
2023/07/30 09:01:39;;;;;;;6.10;3.90;;;19.20;88.10;;;;;;4995646;28;20053;-84
2023/07/30 09:04:06;;;;;;;7.25;3.75;;;19.50;88.20;;;;;;4997362;28;20029;-81
2023/07/30 09:06:59;;;;;;;6.95;3.90;;;19.60;88.70;;;;;;5001109;28;20451;-80
2023/07/30 09:09:25;;;;;;;8.43;4.60;;;19.60;88.20;;;;;;4973252;28;20064;-77
2023/07/30 09:11:54;;;;;;;7.18;4.10;;;19.60;88.10;;;;;;5031316;28;20045;-81
2023/07/30 09:14:21;;;;;;;9.65;4.53;;;19.60;88.10;;;;;;5032837;28;20032;-81
2023/07/30 09:16:46;;;;;;;7.78;3.85;;;19.60;88.10;;;;;;5032684;28;20858;-79
2023/07/30 09:19:17;;;;;;;6.68;3.72;;;19.60;88.10;;;;;;5020182;28;20112;-79
2023/07/30 09:21:43;;;;;;;7.95;4.30;;;19.60;88.20;;;;;;5030147;28;20037;-82
2023/07/30 09:24:08;;;;;;;7.40;3.90;;;19.60;88.20;;;;;;5014921;28;20038;-83
2023/07/30 09:26:46;;;;;;;6.53;4.13;;;19.50;88.20;;;;;;5004846;28;20040;-84
2023/07/30 09:29:12;;;;;;;6.65;4.15;;;19.50;88.40;;;;;;5012646;28;20567;-84
2023/07/30 09:31:54;;;;;;;9.30;4.40;;;19.50;88.50;;;;;;5013107;28;20600;-84
2023/07/30 09:34:20;;;;;;;7.43;4.22;;;19.50;88.60;;;;;;5013551;28;20519;-80
2023/07/30 09:36:46;;;;;;;6.10;3.72;;;19.50;88.60;;;;;;5016468;28;20055;-83
2023/07/30 09:39:26;;;;;;;7.57;3.92;;;19.50;88.60;;;;;;5037085;28;20028;-80
2023/07/30 09:41:58;;;;;;;5.90;3.78;;;19.50;88.70;;;;;;5032850;28;20030;-80
2023/07/30 09:44:24;;;;;;;7.78;4.50;;;19.50;88.70;;;;;;5031396;28;20114;-80
2023/07/30 09:46:50;;;;;;;7.28;4.22;;;19.50;88.80;;;;;;5021854;28;20029;-80
2023/07/30 09:49:17;;;;;;;7.53;3.85;;;19.50;88.80;;;;;;4996204;28;20029;-80
2023/07/30 09:51:43;;;;;;;5.95;3.70;;;19.50;88.80;;;;;;4997223;28;20018;-80
2023/07/30 09:54:13;;;;;;;7.25;4.15;;;19.50;88.80;;;;;;5015989;28;20018;-80
2023/07/30 09:56:40;;;;;;;6.90;4.05;;;19.50;88.90;;;;;;5018567;28;20043;-81
2023/07/30 09:59:07;;;;;;;7.57;4.15;;;19.50;88.90;;;;;;5018984;28;20133;-80
2023/07/30 10:01:49;;;;;;;7.03;4.22;;;19.50;88.90;;;;;;5018945;28;20367;-81
2023/07/30 10:04:18;;;;;;;7.05;4.00;;;19.50;88.80;;;;;;5018650;28;20032;-82
2023/07/30 10:06:49;;;;;;;7.25;3.75;;;19.50;88.70;;;;;;5001858;28;20457;-81
2023/07/30 10:09:17;;;;;;;;;;;19.50;88.70;;;;;;5029406;28;20029;-81
2023/07/30 10:11:44;;;;;;;8.57;4.50;;;19.50;88.60;;;;;;5035231;28;19912;-80
2023/07/30 10:14:11;;;;;;;8.07;4.35;;;19.60;88.70;;;;;;5034744;28;20025;-81
2023/07/30 10:16:36;;;;;;;6.78;4.10;;;19.50;88.70;;;;;;4999860;28;20440;-80
2023/07/30 10:19:02;;;;;;;6.10;3.85;;;19.50;88.70;;;;;;5036166;28;20110;-80
2023/07/30 10:21:29;;;;;;;7.07;3.72;;;19.50;88.70;;;;;;5035293;28;20033;-80
2023/07/30 10:23:58;;;;;;;7.10;4.10;;;19.50;88.70;;;;;;5035953;28;20021;-81
2023/07/30 10:26:32;;;;;;;7.95;4.57;;;19.50;88.70;;;;;;5018597;28;20034;-80
2023/07/30 10:29:20;;;;;;;7.53;4.68;;;19.50;88.60;;;;;;5015594;28;20545;-80
2023/07/30 10:31:57;;;;;;;7.90;4.20;;;19.60;88.70;;;;;;4998322;28;20394;-81
2023/07/30 10:34:27;;;;;;;7.20;4.40;;;19.60;88.40;;;;;;4998203;28;20018;-80
2023/07/30 10:36:55;;;;;;;7.15;3.75;;;19.60;88.30;;;;;;5051543;28;20030;-83
2023/07/30 10:39:26;;;;;;;7.07;4.13;;;19.60;88.20;;;;;;5040985;28;20048;-83
2023/07/30 10:41:58;;;;;;;7.57;4.30;;;19.70;88.10;;;;;;5034661;28;20489;-82
2023/07/30 10:44:34;;;;;;;6.38;4.20;;;19.70;88.00;;;;;;5050114;28;20417;-82
2023/07/30 10:47:01;;;;;;;6.53;4.25;;;19.70;87.80;;;;;;5049521;28;20040;-83
2023/07/30 10:49:27;;;;;;;7.00;4.30;;;19.70;87.80;;;;;;5046185;28;20018;-83
2023/07/30 10:51:57;;;;;;;7.18;4.18;;;19.70;87.70;;;;;;5050615;28;20485;-82
2023/07/30 10:54:23;;;;;;;7.30;4.10;;;19.70;87.70;;;;;;5030461;28;20032;-83
2023/07/30 10:56:48;;;;;;;7.25;4.07;;;19.80;87.70;;;;;;5028309;28;20068;-84
2023/07/30 10:59:15;;;;;;;7.57;4.40;;;19.80;87.60;;;;;;5051434;28;20021;-82
2023/07/30 11:01:42;;;;;;;6.28;3.95;;;19.80;87.50;;;;;;5035193;28;20072;-82
2023/07/30 11:04:15;;;;;;;8.38;4.65;;;19.80;87.50;;;;;;5033629;28;20516;-82
2023/07/30 11:06:48;;;;;;;6.80;4.40;;;19.80;87.50;;;;;;5047429;28;20036;-83
2023/07/30 11:09:25;;;;;;;6.65;4.03;;;19.80;87.60;;;;;;5051101;28;20045;-83
2023/07/30 11:11:52;;;;;;;7.22;4.38;;;19.80;87.60;;;;;;5033266;28;20018;-85
2023/07/30 11:14:22;;;;;;;8.32;4.68;;;19.70;87.70;;;;;;5049846;28;20669;-82
2023/07/30 11:16:59;;;;;;;6.43;4.32;;;19.80;88.10;;;;;;5038375;28;20473;-84
2023/07/30 11:19:25;;;;;;;8.65;4.55;;;19.70;87.90;;;;;;5040296;28;20029;-82
2023/07/30 11:21:53;;;;;;;7.60;4.28;;;19.70;88.10;;;;;;5031097;28;20059;-80
2023/07/30 11:24:19;;;;;;;6.38;4.22;;;19.70;88.00;;;;;;5030242;28;20034;-81
2023/07/30 11:26:45;;;;;;;7.90;4.82;;;19.70;87.90;;;;;;5043585;28;20006;-82
2023/07/30 11:29:18;;;;;;;8.77;4.53;;;19.70;87.80;;;;;;5047783;28;20497;-83
2023/07/30 11:31:44;;;;;;;7.18;4.50;;;19.80;87.80;;;;;;5029710;28;20021;-81
2023/07/30 11:34:10;;;;;;;7.38;4.75;;;19.80;87.80;;;;;;5028478;28;20729;-82
2023/07/30 11:36:36;;;;;;;6.95;4.70;;;19.80;87.70;;;;;;5023613;28;20026;-81
2023/07/30 11:39:03;;;;;;;7.13;4.28;;;19.80;87.70;;;;;;5046717;28;20022;-80
2023/07/30 11:41:29;;;;;;;6.75;4.60;;;19.80;87.60;;;;;;5043996;28;20025;-81
2023/07/30 11:43:55;;;;;;;6.97;4.40;;;19.80;87.70;;;;;;5044385;28;20020;-80
2023/07/30 11:46:22;;;;;;;6.30;4.07;;;19.80;87.70;;;;;;5037359;28;20354;-82
2023/07/30 11:48:50;;;;;;;7.65;4.60;;;19.80;87.70;;;;;;5044012;28;20489;-80
2023/07/30 11:51:26;;;;;;;7.32;4.50;;;19.80;87.70;;;;;;5043334;28;20032;-81
2023/07/30 11:53:59;;;;;;;6.10;4.22;;;19.80;87.70;;;;;;5024292;28;20544;-82
2023/07/30 11:56:27;;;;;;;6.65;4.32;;;19.80;87.80;;;;;;5022515;28;20022;-82
2023/07/30 11:58:59;;;;;;;6.05;4.38;;;19.70;87.90;;;;;;5041930;28;20030;-82
2023/07/30 12:01:27;;;;;;;7.78;4.32;;;19.70;87.90;;;;;;5040710;28;20033;-82
2023/07/30 12:03:57;;;;;;;7.35;4.20;;;19.70;87.90;;;;;;5039883;28;20056;-81
2023/07/30 12:06:23;;;;;;;7.03;4.20;;;19.70;87.90;;;;;;5028826;28;20029;-80
2023/07/30 12:08:49;;;;;;;6.30;4.30;;;19.70;87.80;;;;;;5039953;28;20021;-82
2023/07/30 12:11:17;;;;;;;6.75;4.72;;;19.80;87.70;;;;;;5038975;28;20668;-81
2023/07/30 12:13:48;;;;;;;6.45;4.22;;;19.80;87.60;;;;;;5037618;28;20075;-81
2023/07/30 12:16:14;;;;;;;6.95;4.32;;;19.80;87.40;;;;;;5010421;28;20030;-80
2023/07/30 12:18:40;;;;;;;7.18;4.22;;;19.90;87.30;;;;;;5039423;28;20036;-80
2023/07/30 12:21:07;;;;;;;7.03;4.13;;;19.90;87.20;;;;;;5021916;28;20517;-81
2023/07/30 12:23:36;;;;;;;6.28;3.70;;;19.90;87.10;;;;;;5039543;28;20033;-80
2023/07/30 12:26:04;;;;;;;7.20;4.22;;;19.90;87.00;;;;;;5026637;28;20030;-82
2023/07/30 12:28:31;;;;;;;7.35;4.28;;;19.90;86.90;;;;;;5020956;28;20029;-81
2023/07/30 12:30:56;;;;;;;6.25;4.00;;;20.00;87.00;;;;;;5036362;28;20032;-81
2023/07/30 12:33:22;;;;;;;7.22;4.05;;;19.90;87.00;;;;;;5035019;28;20021;-80
2023/07/30 12:35:50;;;;;;;7.07;3.95;;;19.90;87.00;;;;;;5026399;28;20120;-80
2023/07/30 12:38:15;;;;;;;5.85;3.90;;;19.90;87.20;;;;;;5022119;28;20018;-80
2023/07/30 12:40:41;;;;;;;7.22;4.38;;;19.90;87.20;;;;;;5039275;28;20071;-81
2023/07/30 12:43:06;;;;;;;6.47;4.18;;;19.90;87.20;;;;;;5034775;28;20017;-80
2023/07/30 12:45:32;;;;;;;6.22;4.15;;;19.90;87.20;;;;;;5031510;28;20014;-80
2023/07/30 12:47:58;;;;;;;8.20;4.32;;;19.80;87.20;;;;;;5035405;28;20026;-81
2023/07/30 12:50:23;;;;;;;6.07;3.75;;;19.80;87.30;;;;;;5035000;28;20047;-80
2023/07/30 12:52:49;;;;;;;6.07;3.67;;;19.80;87.30;;;;;;5034006;28;20112;-81
2023/07/30 12:55:14;;;;;;;6.03;4.00;;;19.80;87.40;;;;;;5032056;28;20017;-81
2023/07/30 12:57:40;;;;;;;6.40;4.13;;;19.80;87.40;;;;;;5036860;28;20022;-83
2023/07/30 13:00:06;;;;;;;6.05;3.90;;;19.80;87.40;;;;;;5036303;28;20028;-81
2023/07/30 13:02:34;;;;;;;6.53;3.58;;;19.80;87.50;;;;;;5017354;28;20063;-81